Time;durP1;ratioP1;P1;durP2;ratioP2;P2;SDS_P1;SDS_P2;PMS_P1;PMS_P2;Temp;Humidity;BMP_temperature;BMP_pressure;BME280_temperature;BME280_humidity;BME280_pressure;Samples;Min_cycle;Max_cycle;Signal;HPM_P1;HPM_P2
2023/12/04 00:00:35;;;;;;;46.90;25.83;;;;;;;-1.17;100.00;101164.84;5086470;28;20020;-74
2023/12/04 00:03:00;;;;;;;48.13;26.40;;;;;;;-1.14;100.00;101164.13;5083588;28;20025;-72
2023/12/04 00:05:26;;;;;;;48.88;26.75;;;;;;;-1.14;100.00;101162.44;5085520;28;20383;-73
2023/12/04 00:07:51;;;;;;;47.55;26.77;;;;;;;-1.13;100.00;101163.34;5084324;28;20086;-73
2023/12/04 00:10:16;;;;;;;48.28;26.08;;;;;;;-1.13;100.00;101160.75;5084305;28;20032;-72
2023/12/04 00:12:42;;;;;;;46.50;25.48;;;;;;;-1.12;100.00;101154.72;5085399;28;20085;-73
2023/12/04 00:15:08;;;;;;;47.75;26.50;;;;;;;-1.13;100.00;101146.06;5082833;28;20028;-73
2023/12/04 00:17:33;;;;;;;46.47;26.13;;;;;;;-1.12;100.00;101144.34;5078598;28;20478;-73
2023/12/04 00:19:58;;;;;;;48.15;25.80;;;;;;;-1.14;100.00;101139.06;5085459;28;20225;-73
2023/12/04 00:22:24;;;;;;;45.95;25.42;;;;;;;-1.14;100.00;101133.88;5082722;28;20470;-72
2023/12/04 00:24:49;;;;;;;46.08;25.83;;;;;;;-1.13;100.00;101140.88;5084123;28;20074;-73
2023/12/04 00:27:15;;;;;;;44.22;25.05;;;;;;;-1.14;100.00;101141.66;5084774;28;20032;-71
2023/12/04 00:29:40;;;;;;;47.13;25.73;;;;;;;-1.13;100.00;101132.22;5083006;28;20035;-75
2023/12/04 00:32:05;;;;;;;45.22;25.27;;;;;;;-1.14;100.00;101123.50;5085684;28;20036;-71
2023/12/04 00:34:31;;;;;;;46.28;25.02;;;;;;;-1.13;100.00;101119.22;5082387;28;20033;-75
2023/12/04 00:36:56;;;;;;;45.45;25.80;;;;;;;-1.16;100.00;101126.84;5083542;28;20044;-76
2023/12/04 00:39:22;;;;;;;45.70;25.60;;;;;;;-1.16;100.00;101127.72;5083619;28;20040;-72
2023/12/04 00:41:47;;;;;;;47.40;26.33;;;;;;;-1.16;100.00;101125.13;5083430;28;20162;-71
2023/12/04 00:44:12;;;;;;;45.08;24.15;;;;;;;-1.16;100.00;101117.34;5084968;28;20024;-73
2023/12/04 00:46:38;;;;;;;45.42;25.23;;;;;;;-1.18;100.00;101123.25;5081942;28;20119;-73
2023/12/04 00:49:03;;;;;;;43.30;24.08;;;;;;;-1.18;100.00;101111.19;5085636;28;20076;-74
2023/12/04 00:51:28;;;;;;;45.42;25.20;;;;;;;-1.19;100.00;101112.00;5082381;28;20033;-74
2023/12/04 00:53:54;;;;;;;45.33;25.17;;;;;;;-1.19;100.00;101109.41;5084107;28;20033;-74
2023/12/04 00:56:20;;;;;;;46.60;25.42;;;;;;;-1.18;100.00;101099.91;5083897;28;20021;-75
2023/12/04 00:58:45;;;;;;;45.85;25.42;;;;;;;-1.20;100.00;101097.22;5082898;28;20024;-73
2023/12/04 01:01:11;;;;;;;46.25;26.00;;;;;;;-1.19;100.00;101096.44;5083498;28;20034;-72
2023/12/04 01:03:37;;;;;;;45.40;25.17;;;;;;;-1.18;100.00;101098.22;5081917;28;20111;-71
2023/12/04 01:06:03;;;;;;;43.08;24.08;;;;;;;-1.19;100.00;101088.66;5077931;28;20050;-75
2023/12/04 01:08:28;;;;;;;42.67;23.45;;;;;;;-1.19;100.00;101088.66;5084544;28;20099;-71
2023/12/04 01:10:54;;;;;;;43.88;23.52;;;;;;;-1.17;100.00;101081.81;5083292;28;20039;-72
2023/12/04 01:13:19;;;;;;;44.15;24.10;;;;;;;-1.16;100.00;101082.75;5083385;28;20074;-70
2023/12/04 01:15:46;;;;;;;43.00;24.45;;;;;;;-1.16;100.00;101087.94;5083956;28;20035;-72
2023/12/04 01:18:11;;;;;;;41.58;23.65;;;;;;;-1.18;100.00;101085.25;5082431;28;20028;-74
2023/12/04 01:20:37;;;;;;;42.80;23.42;;;;;;;-1.17;100.00;101075.75;5085245;28;20481;-74
2023/12/04 01:23:02;;;;;;;43.45;23.42;;;;;;;-1.16;100.00;101083.63;5081490;28;20029;-70
2023/12/04 01:25:27;;;;;;;42.83;23.27;;;;;;;-1.14;100.00;101074.22;5084293;28;20040;-69
2023/12/04 01:27:53;;;;;;;42.53;23.33;;;;;;;-1.15;100.00;101075.03;5081534;28;20059;-73
2023/12/04 01:30:18;;;;;;;39.05;22.35;;;;;;;-1.13;100.00;101069.94;5082944;28;20426;-74
2023/12/04 01:32:44;;;;;;;40.75;22.67;;;;;;;-1.13;100.00;101065.63;5082788;28;20060;-74
2023/12/04 01:35:09;;;;;;;42.88;23.50;;;;;;;-1.10;100.00;101067.50;5081207;28;20036;-73
2023/12/04 01:37:34;;;;;;;41.40;22.75;;;;;;;-1.11;100.00;101068.31;5084788;28;20056;-72
2023/12/04 01:40:00;;;;;;;38.70;21.73;;;;;;;-1.11;100.00;101063.13;5081592;28;20033;-73
2023/12/04 01:42:26;;;;;;;39.90;21.52;;;;;;;-1.09;100.00;101069.28;5083589;28;20024;-74
2023/12/04 01:44:51;;;;;;;39.65;21.55;;;;;;;-1.09;100.00;101059.78;5083041;28;20115;-71
2023/12/04 01:47:18;;;;;;;40.40;22.13;;;;;;;-1.09;100.00;101062.41;5082245;28;20050;-73
2023/12/04 01:49:43;;;;;;;40.42;21.92;;;;;;;-1.10;100.00;101055.41;5083917;28;20016;-74
2023/12/04 01:52:09;;;;;;;38.97;21.70;;;;;;;-1.08;100.00;101050.31;5081298;28;20499;-74
2023/12/04 01:54:35;;;;;;;38.13;21.98;;;;;;;-1.09;100.00;101044.22;5084531;28;20024;-74
2023/12/04 01:57:02;;;;;;;39.03;21.20;;;;;;;-1.07;100.00;101041.72;5079682;28;20071;-74
2023/12/04 01:59:28;;;;;;;38.03;21.10;;;;;;;-1.09;100.00;101044.22;5084078;28;20029;-74
2023/12/04 02:01:54;;;;;;;38.97;21.25;;;;;;;-1.08;100.00;101038.25;5082360;28;20029;-74
2023/12/04 02:04:20;;;;;;;37.88;20.58;;;;;;;-1.08;100.00;101035.66;5082547;28;20044;-74
2023/12/04 02:06:46;;;;;;;37.10;20.90;;;;;;;-1.07;100.00;101029.63;5083798;28;20024;-74
2023/12/04 02:09:13;;;;;;;37.10;20.42;;;;;;;-1.10;100.00;101024.28;5081474;28;20036;-74
2023/12/04 02:11:39;;;;;;;37.65;20.67;;;;;;;-1.08;100.00;101029.53;5084506;28;20437;-74
2023/12/04 02:14:05;;;;;;;38.83;20.90;;;;;;;-1.10;100.00;101021.66;5076964;28;20025;-74
2023/12/04 02:16:33;;;;;;;37.03;20.73;;;;;;;-1.09;100.00;101020.88;5082562;28;20118;-74
2023/12/04 02:18:59;;;;;;;37.15;20.30;;;;;;;-1.08;100.00;101013.97;5081443;28;20060;-73
2023/12/04 02:21:24;;;;;;;38.30;20.60;;;;;;;-1.10;100.00;101010.41;5083181;28;20110;-74
2023/12/04 02:23:52;;;;;;;35.70;20.00;;;;;;;-1.07;100.00;101013.16;5082641;28;20036;-74
2023/12/04 02:26:23;;;;;;;38.42;20.67;;;;;;;-1.09;100.00;101007.00;5081967;28;20020;-70
2023/12/04 02:28:58;;;;;;;35.63;20.00;;;;;;;-1.10;100.00;101005.22;5082976;28;20077;-71
2023/12/04 02:31:24;;;;;;;35.47;19.50;;;;;;;-1.12;100.00;101012.94;5082643;28;20282;-72
2023/12/04 02:33:52;;;;;;;36.00;19.30;;;;;;;-1.11;100.00;101003.44;5082557;28;20119;-71
2023/12/04 02:36:19;;;;;;;35.97;19.83;;;;;;;-1.11;100.00;101001.72;5082543;28;20036;-73
2023/12/04 02:38:45;;;;;;;37.50;19.92;;;;;;;-1.10;100.00;101000.91;5083094;28;20396;-72
2023/12/04 02:41:11;;;;;;;35.17;18.98;;;;;;;-1.10;100.00;101000.91;5080817;28;20031;-70
2023/12/04 02:43:36;;;;;;;36.70;19.85;;;;;;;-1.10;100.00;100992.25;5084536;28;20036;-73
2023/12/04 02:46:01;;;;;;;33.80;18.65;;;;;;;-1.10;100.00;100989.66;5081100;28;20039;-72
2023/12/04 02:48:27;;;;;;;34.97;18.38;;;;;;;-1.11;100.00;100983.56;5083222;28;20025;-74
2023/12/04 02:50:52;;;;;;;36.88;19.27;;;;;;;-1.10;100.00;100981.88;5082220;28;20035;-73
2023/12/04 02:53:17;;;;;;;34.97;18.75;;;;;;;-1.12;100.00;100979.19;5081670;28;20037;-73
2023/12/04 02:55:43;;;;;;;34.15;19.00;;;;;;;-1.11;100.00;100967.97;5083249;28;20070;-73
2023/12/04 02:58:09;;;;;;;34.80;19.02;;;;;;;-1.13;100.00;100967.03;5080692;28;20056;-72
2023/12/04 03:00:35;;;;;;;33.90;17.95;;;;;;;-1.13;100.00;100964.44;5076269;28;20028;-71
2023/12/04 03:03:00;;;;;;;31.80;17.50;;;;;;;-1.12;100.00;100965.31;5083343;28;20034;-70
2023/12/04 03:05:25;;;;;;;34.08;18.75;;;;;;;-1.13;100.00;100960.94;5080804;28;20020;-73
2023/12/04 03:07:51;;;;;;;33.80;18.23;;;;;;;-1.13;100.00;100948.84;5082147;28;20468;-70
2023/12/04 03:10:16;;;;;;;32.92;17.98;;;;;;;-1.14;100.00;100947.06;5084916;28;20032;-73
2023/12/04 03:12:41;;;;;;;32.28;17.48;;;;;;;-1.11;100.00;100947.22;5084284;28;20021;-70
2023/12/04 03:15:07;;;;;;;32.30;18.15;;;;;;;-1.11;100.00;100947.22;5087291;28;20032;-72
2023/12/04 03:17:33;;;;;;;32.28;16.92;;;;;;;-1.10;100.00;100937.75;5084205;28;20032;-69
2023/12/04 03:19:58;;;;;;;31.45;17.35;;;;;;;-1.11;100.00;100934.25;5086581;28;20029;-74
2023/12/04 03:22:23;;;;;;;30.40;16.63;;;;;;;-1.09;100.00;100931.75;5085222;28;20028;-67
2023/12/04 03:24:49;;;;;;;31.10;16.65;;;;;;;-1.09;100.00;100927.44;5085445;28;20028;-72
2023/12/04 03:27:14;;;;;;;30.63;16.20;;;;;;;-1.09;100.00;100924.84;5086395;28;20070;-73
2023/12/04 03:29:39;;;;;;;31.92;17.00;;;;;;;-1.11;100.00;100910.91;5083624;28;20029;-71
2023/12/04 03:32:05;;;;;;;31.50;17.10;;;;;;;-1.11;100.00;100910.91;5085927;28;20054;-72
2023/12/04 03:34:30;;;;;;;31.00;17.10;;;;;;;-1.11;100.00;100900.50;5083909;28;20495;-68
2023/12/04 03:36:56;;;;;;;31.05;16.65;;;;;;;-1.09;100.00;100898.91;5085484;28;20139;-72
2023/12/04 03:39:21;;;;;;;29.73;15.57;;;;;;;-1.09;100.00;100898.03;5085719;28;20387;-71
2023/12/04 03:41:47;;;;;;;30.73;16.90;;;;;;;-1.09;100.00;100893.72;5084420;28;20028;-72
2023/12/04 03:44:12;;;;;;;29.50;16.45;;;;;;;-1.09;100.00;100893.72;5086382;28;20387;-71
2023/12/04 03:46:38;;;;;;;30.10;16.02;;;;;;;-1.09;100.00;100891.13;5083778;28;20048;-71
2023/12/04 03:49:03;;;;;;;30.95;16.27;;;;;;;-1.10;100.00;100873.75;5086483;28;20030;-70
2023/12/04 03:51:29;;;;;;;29.48;15.95;;;;;;;-1.09;100.00;100878.16;5084150;28;20539;-70
2023/12/04 03:53:54;;;;;;;29.88;16.45;;;;;;;-1.10;100.00;100876.34;5085097;28;20033;-72
2023/12/04 03:56:20;;;;;;;30.73;17.08;;;;;;;-1.09;100.00;100874.69;5085112;28;20111;-71
2023/12/04 03:58:45;;;;;;;31.02;16.75;;;;;;;-1.09;100.00;100878.16;5084028;28;20132;-72
2023/12/04 04:01:10;;;;;;;30.17;16.13;;;;;;;-1.09;100.00;100862.59;5086305;28;20066;-71
2023/12/04 04:03:36;;;;;;;29.55;15.88;;;;;;;-1.12;100.00;100861.50;5083005;28;20098;-72
2023/12/04 04:06:01;;;;;;;30.45;16.40;;;;;;;-1.11;100.00;100859.00;5086078;28;20115;-71
2023/12/04 04:08:26;;;;;;;29.88;16.08;;;;;;;-1.12;100.00;100866.69;5083960;28;20114;-70
2023/12/04 04:10:52;;;;;;;30.33;16.63;;;;;;;-1.13;100.00;100858.03;5084663;28;20031;-71
2023/12/04 04:13:17;;;;;;;30.73;16.60;;;;;;;-1.15;100.00;100858.75;5085620;28;20056;-72
2023/12/04 04:15:43;;;;;;;29.95;16.40;;;;;;;-1.14;100.00;100850.19;5082982;28;20356;-72
2023/12/04 04:18:08;;;;;;;30.35;16.17;;;;;;;-1.16;100.00;100850.09;5086164;28;20501;-71
2023/12/04 04:20:33;;;;;;;31.33;16.58;;;;;;;-1.17;100.00;100845.72;5082845;28;20044;-69
2023/12/04 04:22:58;;;;;;;30.48;17.23;;;;;;;-1.17;100.00;100850.91;5085031;28;20028;-70
2023/12/04 04:25:24;;;;;;;30.60;16.98;;;;;;;-1.17;100.00;100840.53;5084243;28;20020;-70
2023/12/04 04:27:49;;;;;;;30.80;17.17;;;;;;;-1.17;100.00;100843.13;5083724;28;20021;-72
2023/12/04 04:30:16;;;;;;;30.77;17.13;;;;;;;-1.17;100.00;100835.34;5083948;28;20072;-71
2023/12/04 04:32:41;;;;;;;31.20;17.20;;;;;;;-1.16;100.00;100825.88;5082724;28;20033;-67
2023/12/04 04:35:07;;;;;;;32.08;17.55;;;;;;;-1.17;100.00;100824.97;5085741;28;20054;-72
2023/12/04 04:37:32;;;;;;;31.73;17.15;;;;;;;-1.17;100.00;100826.69;5082393;28;20044;-71
2023/12/04 04:39:58;;;;;;;32.45;17.42;;;;;;;-1.16;100.00;100818.97;5085133;28;20063;-70
2023/12/04 04:42:23;;;;;;;30.30;17.25;;;;;;;-1.17;100.00;100827.56;5083750;28;20119;-71
2023/12/04 04:44:48;;;;;;;30.23;17.00;;;;;;;-1.16;100.00;100818.09;5082106;28;20112;-71
2023/12/04 04:47:14;;;;;;;31.95;17.52;;;;;;;-1.15;100.00;100819.84;5085400;28;20383;-70
2023/12/04 04:49:39;;;;;;;31.27;17.73;;;;;;;-1.15;100.00;100809.47;5082075;28;20369;-71
2023/12/04 04:52:04;;;;;;;31.83;18.27;;;;;;;-1.13;100.00;100813.06;5085342;28;20082;-71
2023/12/04 04:54:33;;;;;;;31.27;17.70;;;;;;;-1.14;100.00;100821.63;5082833;28;20036;-70
2023/12/04 04:56:58;;;;;;;32.10;18.05;;;;;;;-1.16;100.00;100812.91;5084319;28;20065;-72
2023/12/04 04:59:24;;;;;;;31.67;17.92;;;;;;;-1.15;100.00;100819.84;5083684;28;20479;-72
2023/12/04 05:01:49;;;;;;;32.33;18.33;;;;;;;-1.16;100.00;100828.47;5083232;28;20025;-73
2023/12/04 05:04:14;;;;;;;29.92;17.40;;;;;;;-1.17;100.00;100817.16;5084675;28;20047;-72
2023/12/04 05:06:40;;;;;;;30.02;17.77;;;;;;;-1.16;100.00;100821.56;5081883;28;20463;-71
2023/12/04 05:09:05;;;;;;;30.33;18.05;;;;;;;-1.16;100.00;100811.19;5081808;28;20051;-72
2023/12/04 05:11:31;;;;;;;30.13;17.27;;;;;;;-1.13;100.00;100819.13;5082965;28;20036;-73
2023/12/04 05:13:56;;;;;;;30.38;17.38;;;;;;;-1.13;100.00;100816.53;5083280;28;20028;-73
2023/12/04 05:16:21;;;;;;;30.40;17.17;;;;;;;-1.11;100.00;100811.41;5083078;28;20514;-73
2023/12/04 05:18:47;;;;;;;30.27;18.10;;;;;;;-1.12;100.00;100801.84;5082784;28;20028;-70
2023/12/04 05:21:12;;;;;;;30.13;16.98;;;;;;;-1.14;100.00;100798.28;5081895;28;20031;-71
2023/12/04 05:23:38;;;;;;;30.30;17.67;;;;;;;-1.14;100.00;100801.75;5084877;28;20071;-73
2023/12/04 05:26:05;;;;;;;29.20;16.95;;;;;;;-1.10;100.00;100788.13;5081708;28;20031;-68
2023/12/04 05:28:30;;;;;;;29.30;17.60;;;;;;;-1.12;100.00;100794.06;5084202;28;20546;-72
2023/12/04 05:30:55;;;;;;;29.42;17.20;;;;;;;-1.11;100.00;100795.84;5082804;28;20115;-72
2023/12/04 05:33:21;;;;;;;28.73;17.02;;;;;;;-1.10;100.00;100774.28;5081995;28;20024;-72
2023/12/04 05:35:48;;;;;;;29.83;17.05;;;;;;;-1.13;100.00;100769.81;5084324;28;20043;-71
2023/12/04 05:38:14;;;;;;;30.60;17.48;;;;;;;-1.12;100.00;100771.63;5081299;28;20044;-73
2023/12/04 05:40:39;;;;;;;30.92;17.50;;;;;;;-1.15;100.00;100766.28;5084723;28;20062;-70
2023/12/04 05:43:04;;;;;;;29.88;17.80;;;;;;;-1.15;100.00;100757.56;5081834;28;20029;-72
2023/12/04 05:45:30;;;;;;;30.52;17.67;;;;;;;-1.13;100.00;100768.94;5083746;28;20032;-73
2023/12/04 05:47:55;;;;;;;29.30;17.77;;;;;;;-1.15;100.00;100767.97;5082868;28;20032;-71
2023/12/04 05:50:21;;;;;;;28.92;17.30;;;;;;;-1.15;100.00;100774.06;5082896;28;20036;-72
2023/12/04 05:52:46;;;;;;;28.75;16.98;;;;;;;-1.16;100.00;100772.25;5083793;28;20455;-71
2023/12/04 05:55:11;;;;;;;28.50;16.90;;;;;;;-1.16;100.00;100772.25;5080049;28;20033;-72
2023/12/04 05:57:39;;;;;;;29.33;16.95;;;;;;;-1.15;100.00;100758.50;5084430;28;20031;-71
2023/12/04 06:00:12;;;;;;;28.63;16.73;;;;;;;-1.14;100.00;100744.69;5081217;28;20024;-71
2023/12/04 06:02:38;;;;;;;27.25;15.80;;;;;;;-1.12;100.00;100752.53;5076927;28;20045;-72
2023/12/04 06:05:03;;;;;;;27.98;16.50;;;;;;;-1.13;100.00;100745.59;5084326;28;20375;-71
2023/12/04 06:07:29;;;;;;;28.85;17.02;;;;;;;-1.13;100.00;100751.66;5081858;28;20082;-70
2023/12/04 06:09:54;;;;;;;27.70;16.50;;;;;;;-1.12;100.00;100745.66;5081693;28;20360;-73
2023/12/04 06:12:19;;;;;;;27.52;16.20;;;;;;;-1.12;100.00;100747.34;5083000;28;20051;-73
2023/12/04 06:14:45;;;;;;;27.02;16.30;;;;;;;-1.11;100.00;100730.97;5081261;28;20035;-72
2023/12/04 06:17:10;;;;;;;27.02;15.15;;;;;;;-1.12;100.00;100722.31;5084442;28;20390;-72
2023/12/04 06:19:35;;;;;;;26.42;14.73;;;;;;;-1.14;100.00;100721.31;5080910;28;20379;-71
2023/12/04 06:22:01;;;;;;;26.75;15.07;;;;;;;-1.12;100.00;100721.41;5083413;28;20394;-71
2023/12/04 06:24:26;;;;;;;27.00;14.25;;;;;;;-1.11;100.00;100716.28;5082268;28;20039;-71
2023/12/04 06:26:52;;;;;;;26.13;14.57;;;;;;;-1.12;100.00;100704.16;5082075;28;20023;-72
2023/12/04 06:29:19;;;;;;;26.20;14.40;;;;;;;-1.12;100.00;100706.75;5083291;28;20353;-68
2023/12/04 06:31:44;;;;;;;26.35;14.00;;;;;;;-1.13;100.00;100693.69;5081539;28;20067;-72
2023/12/04 06:34:10;;;;;;;26.38;14.70;;;;;;;-1.13;100.00;100688.50;5084086;28;20059;-72
2023/12/04 06:36:40;;;;;;;25.70;13.57;;;;;;;-1.12;100.00;100688.59;5081014;28;20028;-72
2023/12/04 06:39:11;;;;;;;24.88;13.60;;;;;;;-1.11;100.00;100677.38;5084029;28;20046;-71
2023/12/04 06:41:37;;;;;;;26.60;13.77;;;;;;;-1.11;100.00;100674.78;5080935;28;20051;-70
2023/12/04 06:44:02;;;;;;;24.80;13.15;;;;;;;-1.13;100.00;100676.41;5085216;28;20028;-72
2023/12/04 06:46:30;;;;;;;24.38;12.82;;;;;;;-1.10;100.00;100662.72;5085773;28;20126;-71
2023/12/04 06:48:59;;;;;;;23.98;12.73;;;;;;;-1.10;100.00;100666.19;5086364;28;20021;-71
2023/12/04 06:51:24;;;;;;;24.95;12.73;;;;;;;-1.16;100.00;100665.88;5085946;28;20047;-71
2023/12/04 06:53:50;;;;;;;23.40;12.02;;;;;;;-1.14;100.00;100673.75;5085564;28;20031;-70
2023/12/04 06:56:15;;;;;;;24.73;13.02;;;;;;;-1.14;100.00;100682.41;5087281;28;20032;-71
2023/12/04 06:58:40;;;;;;;24.83;12.95;;;;;;;-1.14;100.00;100685.00;5084149;28;20090;-72
2023/12/04 07:01:06;;;;;;;24.65;12.65;;;;;;;-1.18;100.00;100671.81;5087690;28;20039;-72
2023/12/04 07:03:31;;;;;;;23.25;11.90;;;;;;;-1.17;100.00;100678.78;5084803;28;20044;-70
2023/12/04 07:05:57;;;;;;;24.15;12.00;;;;;;;-1.14;100.00;100672.03;5086119;28;20020;-71
2023/12/04 07:08:22;;;;;;;23.02;11.63;;;;;;;-1.15;100.00;100670.28;5086233;28;20111;-72
2023/12/04 07:10:47;;;;;;;23.90;12.05;;;;;;;-1.18;100.00;100664.94;5084661;28;20072;-73
2023/12/04 07:13:13;;;;;;;23.58;11.55;;;;;;;-1.14;100.00;100672.03;5085899;28;20031;-72
2023/12/04 07:15:39;;;;;;;23.75;12.00;;;;;;;-1.17;100.00;100664.09;5083957;28;20044;-73
2023/12/04 07:18:04;;;;;;;23.10;11.25;;;;;;;-1.20;100.00;100663.94;5086878;28;20623;-72
2023/12/04 07:20:29;;;;;;;22.73;11.48;;;;;;;-1.19;100.00;100670.94;5083760;28;20031;-73
2023/12/04 07:22:57;;;;;;;23.08;11.52;;;;;;;-1.18;100.00;100672.72;5085512;28;20028;-73
2023/12/04 07:25:23;;;;;;;21.92;10.52;;;;;;;-1.19;100.00;100662.25;5086040;28;20368;-72
2023/12/04 07:27:48;;;;;;;23.35;11.30;;;;;;;-1.18;100.00;100662.34;5084614;28;20039;-72
2023/12/04 07:30:14;;;;;;;22.55;11.13;;;;;;;-1.18;100.00;100670.13;5086841;28;20111;-72
2023/12/04 07:32:39;;;;;;;23.10;11.30;;;;;;;-1.17;100.00;100666.69;5083834;28;20056;-72
2023/12/04 07:35:06;;;;;;;23.75;11.38;;;;;;;-1.15;100.00;100659.91;5086774;28;20028;-70
2023/12/04 07:37:32;;;;;;;22.02;10.85;;;;;;;-1.15;100.00;100654.72;5082900;28;20028;-71
2023/12/04 07:39:57;;;;;;;22.00;10.52;;;;;;;-1.12;100.00;100659.13;5085435;28;20082;-71
2023/12/04 07:42:23;;;;;;;22.48;10.73;;;;;;;-1.11;100.00;100655.72;5085564;28;20028;-73
2023/12/04 07:44:49;;;;;;;22.23;10.55;;;;;;;-1.09;100.00;100657.59;5084185;28;20044;-73
2023/12/04 07:47:15;;;;;;;22.08;10.45;;;;;;;-1.04;100.00;100667.31;5086379;28;20021;-72
2023/12/04 07:49:41;;;;;;;22.00;10.50;;;;;;;-1.03;100.00;100653.50;5083664;28;20032;-70
2023/12/04 07:52:07;;;;;;;21.58;9.82;;;;;;;-1.00;100.00;100657.16;5086837;28;20076;-71
2023/12/04 07:54:32;;;;;;;21.67;10.55;;;;;;;-1.02;100.00;100652.69;5083618;28;20043;-71
2023/12/04 07:56:58;;;;;;;22.48;10.40;;;;;;;-1.01;100.00;100651.88;5083561;28;20060;-73
2023/12/04 07:59:23;;;;;;;22.05;10.32;;;;;;;-1.00;100.00;100643.28;5085007;28;20024;-71
2023/12/04 08:01:48;;;;;;;22.30;10.25;;;;;;;-1.02;100.00;100639.72;5083850;28;20032;-71
2023/12/04 08:04:14;;;;;;;22.42;10.30;;;;;;;-1.02;100.00;100634.53;5086675;28;20039;-72
2023/12/04 08:06:39;;;;;;;21.25;9.50;;;;;;;-1.02;100.00;100619.88;5081735;28;20028;-73
2023/12/04 08:09:09;;;;;;;22.00;9.80;;;;;;;-1.00;100.00;100625.13;5086170;28;20115;-70
2023/12/04 08:11:34;;;;;;;22.23;9.95;;;;;;;-1.03;100.00;100620.66;5083282;28;20107;-73
2023/12/04 08:13:59;;;;;;;21.98;9.85;;;;;;;-1.02;100.00;100622.47;5085049;28;20103;-71
2023/12/04 08:16:28;;;;;;;22.02;10.20;;;;;;;-1.01;100.00;100626.81;5084439;28;20032;-72
2023/12/04 08:18:54;;;;;;;21.95;10.02;;;;;;;-1.00;100.00;100631.19;5084336;28;20487;-71
2023/12/04 08:21:19;;;;;;;21.67;9.52;;;;;;;-1.00;100.00;100620.81;5085218;28;20032;-71
2023/12/04 08:23:44;;;;;;;21.90;9.98;;;;;;;-0.96;100.00;100624.44;5082911;28;20372;-71
2023/12/04 08:26:10;;;;;;;21.70;10.10;;;;;;;-0.98;100.00;100618.28;5086165;28;20119;-73
2023/12/04 08:28:37;;;;;;;21.63;9.82;;;;;;;-0.97;100.00;100614.88;5082979;28;20051;-68
2023/12/04 08:31:03;;;;;;;21.90;10.23;;;;;;;-0.96;100.00;100609.75;5085418;28;20032;-72
2023/12/04 08:33:29;;;;;;;21.90;10.25;;;;;;;-0.95;100.00;100610.63;5083702;28;20444;-73
2023/12/04 08:35:54;;;;;;;21.85;10.23;;;;;;;-0.94;100.00;100604.66;5063902;28;20025;-69
2023/12/04 08:38:19;;;;;;;21.20;10.15;;;;;;;-0.93;100.00;100609.91;5084810;28;20063;-72
2023/12/04 08:40:45;;;;;;;21.40;9.85;;;;;;;-0.92;100.00;100592.63;5082491;28;20028;-71
2023/12/04 08:43:10;;;;;;;22.60;10.30;;;;;;;-0.91;100.00;100590.09;5085795;28;20028;-71
2023/12/04 08:45:35;;;;;;;22.33;10.27;;;;;;;-0.90;100.00;100598.78;5082627;28;20029;-71
2023/12/04 08:48:01;;;;;;;21.30;10.05;;;;;;;-0.87;100.00;100580.75;5084510;28;20036;-73
2023/12/04 08:50:26;;;;;;;21.48;10.30;;;;;;;-0.85;100.00;100579.09;5083685;28;20438;-71
2023/12/04 08:52:52;;;;;;;21.88;10.57;;;;;;;-0.85;100.00;100571.31;5083428;28;20494;-73
2023/12/04 08:55:17;;;;;;;21.52;10.30;;;;;;;-0.84;100.00;100567.03;5084778;28;20032;-71
2023/12/04 08:57:42;;;;;;;22.02;10.32;;;;;;;-0.81;100.00;100561.97;5082120;28;20040;-71
2023/12/04 09:00:09;;;;;;;22.05;10.57;;;;;;;-0.82;100.00;100571.44;5085501;28;20118;-73
2023/12/04 09:02:34;;;;;;;22.48;10.15;;;;;;;-0.79;100.00;100566.41;5081139;28;20109;-72
2023/12/04 09:04:59;;;;;;;22.67;10.23;;;;;;;-0.79;100.00;100568.13;5084530;28;20061;-72
2023/12/04 09:07:25;;;;;;;22.83;10.18;;;;;;;-0.77;100.00;100567.38;5083513;28;20031;-71
2023/12/04 09:09:50;;;;;;;21.83;9.73;;;;;;;-0.74;100.00;100567.50;5082664;28;20033;-72
2023/12/04 09:12:16;;;;;;;22.10;10.13;;;;;;;-0.74;100.00;100567.50;5084830;28;20031;-73
2023/12/04 09:14:41;;;;;;;20.83;9.25;;;;;;;-0.72;100.00;100571.06;5081531;28;20094;-73
2023/12/04 09:17:07;;;;;;;22.30;9.93;;;;;;;-0.67;100.00;100568.69;5084811;28;20028;-72
2023/12/04 09:19:32;;;;;;;21.95;10.20;;;;;;;-0.71;100.00;100562.47;5082572;28;20059;-73
2023/12/04 09:21:58;;;;;;;22.15;9.65;;;;;;;-0.67;100.00;100562.59;5083495;28;20056;-72
2023/12/04 09:24:23;;;;;;;21.63;9.77;;;;;;;-0.66;100.00;100565.25;5083579;28;20036;-72
2023/12/04 09:26:49;;;;;;;21.00;9.32;;;;;;;-0.64;100.00;100566.22;5082305;28;20020;-73
2023/12/04 09:29:16;;;;;;;21.83;10.02;;;;;;;-0.62;100.00;100558.50;5084796;28;20086;-73
2023/12/04 09:31:41;;;;;;;21.35;9.95;;;;;;;-0.60;100.00;100556.84;5081500;28;20356;-70
2023/12/04 09:34:08;;;;;;;20.88;9.57;;;;;;;-0.58;100.00;100558.72;5084742;28;20375;-71
2023/12/04 09:36:34;;;;;;;22.65;9.80;;;;;;;-0.55;100.00;100561.44;5082013;28;20023;-73
2023/12/04 09:39:00;;;;;;;22.30;9.65;;;;;;;-0.54;100.00;100563.22;5082104;28;20392;-69
2023/12/04 09:41:26;;;;;;;21.83;9.57;;;;;;;-0.49;100.00;100545.25;5083184;28;20066;-73
2023/12/04 09:43:52;;;;;;;21.90;10.10;;;;;;;-0.47;100.00;100556.56;5082361;28;20056;-73
2023/12/04 09:46:19;;;;;;;21.98;9.65;;;;;;;-0.39;100.00;100551.75;5083995;28;20071;-72
2023/12/04 09:48:44;;;;;;;22.85;9.60;;;;;;;-0.43;100.00;100555.91;5081350;28;20050;-73
2023/12/04 09:51:10;;;;;;;21.33;9.75;;;;;;;-0.42;100.00;100547.28;5084535;28;20516;-73
2023/12/04 09:53:36;;;;;;;21.75;9.52;;;;;;;-0.40;100.00;100556.03;5081533;28;20051;-74
2023/12/04 09:56:03;;;;;;;21.60;9.68;;;;;;;-0.42;100.00;100547.28;5083903;28;20032;-74
2023/12/04 09:58:32;;;;;;;23.13;10.50;;;;;;;-0.45;100.00;100551.44;5082228;28;20036;-74
2023/12/04 10:00:59;;;;;;;21.83;10.18;;;;;;;-0.45;100.00;100551.44;5083071;28;20032;-73
2023/12/04 10:03:25;;;;;;;22.48;10.70;;;;;;;-0.49;100.00;100550.44;5083073;28;20035;-73
2023/12/04 10:05:51;;;;;;;22.52;10.50;;;;;;;-0.48;100.00;100544.44;5081813;28;20021;-72
2023/12/04 10:08:17;;;;;;;23.38;10.75;;;;;;;-0.47;100.00;100543.59;5084070;28;20028;-72
2023/12/04 10:10:42;;;;;;;21.92;10.65;;;;;;;-0.45;100.00;100536.78;5081055;28;20028;-74
2023/12/04 10:13:08;;;;;;;22.88;11.00;;;;;;;-0.47;100.00;100528.00;5084395;28;20036;-72
2023/12/04 10:15:34;;;;;;;22.75;11.90;;;;;;;-0.43;100.00;100534.25;5081459;28;20035;-70
2023/12/04 10:17:59;;;;;;;23.13;11.77;;;;;;;-0.38;100.00;100531.03;5082647;28;20418;-73
2023/12/04 10:20:24;;;;;;;23.75;11.98;;;;;;;-0.39;100.00;100526.66;5086828;28;20031;-73
2023/12/04 10:22:57;;;;;;;22.85;11.95;;;;;;;-0.33;100.00;100525.16;5085859;28;20021;-74
2023/12/04 10:25:25;;;;;;;23.17;11.73;;;;;;;-0.28;100.00;100510.63;5087388;28;20020;-73
2023/12/04 10:27:52;;;;;;;24.88;12.50;;;;;;;-0.24;100.00;100509.94;5085666;28;20028;-68
2023/12/04 10:30:28;;;;;;;23.20;11.85;;;;;;;-0.19;100.00;100500.63;5087751;28;20483;-71
2023/12/04 10:33:00;;;;;;;23.80;12.18;;;;;;;-0.11;100.00;100495.75;5086291;28;20032;-72
2023/12/04 10:35:30;;;;;;;24.30;12.32;;;;;;;-0.09;100.00;100484.59;5086693;28;20028;-69
2023/12/04 10:37:56;;;;;;;24.60;12.02;;;;;;;-0.07;100.00;100480.34;5085842;28;20048;-72
2023/12/04 10:40:26;;;;;;;22.83;12.20;;;;;;;-0.06;100.00;100476.03;5087084;28;20151;-72
2023/12/04 10:42:51;;;;;;;23.75;12.50;;;;;;;-0.09;100.00;100470.72;5085747;28;20387;-72
2023/12/04 10:45:17;;;;;;;22.55;11.73;;;;;;;-0.08;100.00;100470.78;5087582;28;20017;-73
2023/12/04 10:47:44;;;;;;;23.23;12.40;;;;;;;-0.05;100.00;100462.22;5084427;28;20038;-74
2023/12/04 10:50:12;;;;;;;23.63;12.68;;;;;;;-0.02;100.00;100463.22;5080514;28;20103;-73
2023/12/04 10:52:40;;;;;;;23.10;11.85;;;;;;;0.00;100.00;100458.13;5087570;28;20061;-73
2023/12/04 10:55:07;;;;;;;23.83;12.15;;;;;;;0.00;100.00;100450.31;5084780;28;20372;-68